• Join FlightAware (Why Join?)
  • Login
  • US Flag 
05:54AM EDT


 

Airport Tracker/Info


-or-


 

Live Flight TrackerFlight Track Log ✈ ASQ3818 ✈ 28-Mar-2014 ✈ KABE - KORD

Flight Track Log - Related Links

Times and Time Zones

All times are in EDT time to prevent confusion due to time zone crossing. See the ASQ3818 flight status page for this flight to view local times or setup timezone preferences in your user account.

Time Position Orientation Groundspeed Altitude Reporting Facility
EDT Latitude Longitude Course Direction KTS MPH feet Rate Location/Type
04:44PM 40.6214 -75.5942 263° West 195 224 6,300  Level New York Center
04:45PM 40.6167 -75.7767 270° West  Level FlightAware Approximate
04:45PM 40.6161 -75.6731 265° West 210 242 8,600  Level New York Center
04:46PM 40.6074 -75.8926 263° West  Level FlightAware Approximate
04:46PM 40.6122 -75.7656 267° West 232 267 10,500  Level New York Center
04:47PM 40.5968 -76.0084 264° West  Level FlightAware Approximate
04:47PM 40.6036 -75.8661 264° West 257 296 11,900  Level New York Center
04:48PM 40.5969 -75.9722 265° West 283 326 13,100 1,260 Climbing New York Center
04:49PM 40.5922 -76.0814 267° West 305 351 14,500 1,380 Climbing New York Center
04:50PM 40.5808 -76.1925 262° West 310 357 15,900 1,320 Climbing New York Center
04:51PM 40.5736 -76.3039 265° West 310 357 17,200 1,140 Climbing New York Center
04:52PM 40.5667 -76.4072 265° West 316 364 18,200 960 Climbing New York Center
04:53PM 40.5589 -76.5269 265° West 316 364 19,200 960 Climbing New York Center
04:54PM 40.5550 -76.6467 268° West 327 376 20,200 960 Climbing New York Center
04:55PM 40.5656 -76.7706 276° West 332 382 21,200 900 Climbing New York Center
04:56PM 40.5797 -76.8975 278° West 344 396 22,000 360 Climbing New York Center
04:57PM 40.5917 -77.0297 277° West 360 414 22,000  Level New York Center
04:58PM 40.6033 -77.1622 277° West 360 414 22,000  Level New York Center
05:00PM 40.6261 -77.4375 276° West 364 419 22,000  Level Cleveland Center
05:01PM 40.6369 -77.5669 276° West 359 413 22,000  Level Cleveland Center
05:02PM 40.6492 -77.7197 276° West 354 407 22,000  Level Cleveland Center
05:03PM 40.6622 -77.8486 278° West 355 409 22,000  Level Cleveland Center
05:04PM 40.6814 -77.9778 281° West 357 411 22,000  Level Cleveland Center
05:05PM 40.6992 -78.1092 280° West 363 418 22,000  Level Cleveland Center
05:06PM 40.7169 -78.2383 280° West 363 418 22,000  Level Cleveland Center
05:08PM 40.7339 -78.3642 280° West 354 407 22,000  Level Cleveland Center
05:09PM 40.7544 -78.5144 280° West 350 403 22,000  Level Cleveland Center
05:10PM 40.7711 -78.6408 280° West 349 402 22,000  Level Cleveland Center
05:11PM 40.7886 -78.7656 281° West 349 402 22,000  Level Cleveland Center
05:12PM 40.8053 -78.8908 280° West 349 402 22,000  Level Cleveland Center
05:13PM 40.8211 -79.0111 280° West 351 404 22,000  Level Cleveland Center
05:14PM 40.8403 -79.1606 280° West 349 402 22,000  Level Cleveland Center
05:15PM 40.8564 -79.2847 280° West 347 399 22,000  Level Cleveland Center
05:16PM 40.8719 -79.4094 279° West 347 399 22,000  Level Cleveland Center
05:17PM 40.8869 -79.5322 279° West 345 397 22,000  Level Cleveland Center
05:18PM 40.9022 -79.6561 279° West 345 397 22,000  Level Cleveland Center
05:19PM 40.9181 -79.7792 280° West 344 396 22,000  Level Cleveland Center
05:20PM 40.9361 -79.9275 279° West 344 396 22,000  Level Cleveland Center
05:21PM 40.9508 -80.0511 279° West 343 395 22,000  Level Cleveland Center
05:22PM 40.9656 -80.1747 279° West 343 395 22,000  Level Cleveland Center
05:23PM 40.9806 -80.2981 279° West 343 395 22,000  Level Cleveland Center
05:24PM 40.9975 -80.4458 279° West 342 394 22,000  Level Cleveland Center
05:25PM 41.0133 -80.5692 280° West 342 394 22,000  Level Cleveland Center
05:26PM 41.0264 -80.6922 278° West 341 392 22,000  Level Cleveland Center
05:27PM 41.0411 -80.8164 279° West 342 394 22,000  Level Cleveland Center
05:28PM 41.0528 -80.9400 277° West 342 394 22,000  Level Cleveland Center
05:29PM 41.0619 -81.0800 275° West 342 394 22,000  Level Cleveland Center
05:30PM 41.0692 -81.2064 274° West 342 394 22,000  Level Cleveland Center
05:31PM 41.0767 -81.3347 274° West 342 394 22,000  Level Cleveland Center
05:32PM 41.0844 -81.4636 275° West 344 396 22,000  Level Cleveland Center
05:33PM 41.0922 -81.5917 275° West 344 396 22,000  Level Cleveland Center
05:34PM 41.1008 -81.7225 275° West 346 398 22,000  Level Cleveland Center
05:35PM 41.1089 -81.8758 274° West 347 399 22,000  Level Cleveland Center
05:36PM 41.1172 -82.0061 275° West 350 403 22,000  Level Cleveland Center
05:38PM 41.1242 -82.1381 274° West 350 403 22,000  Level Cleveland Center
05:39PM 41.1311 -82.2697 274° West 351 404 22,000  Level Cleveland Center
05:40PM 41.1381 -82.4011 274° West 351 404 22,000  Level Cleveland Center
05:41PM 41.1450 -82.5333 274° West 352 405 22,000  Level Cleveland Center
05:42PM 41.1517 -82.6639 274° West 353 406 22,000  Level Cleveland Center
05:43PM 41.1589 -82.7969 274° West 354 407 22,000 -60 Level Cleveland Center
05:44PM 41.1661 -82.9511 274° West 355 409 21,900  Descending Cleveland Center
05:45PM 41.1725 -83.0850 274° West 357 411 22,000  Climbing Cleveland Center
05:46PM 41.1786 -83.2119 274° West 357 411 22,000  Level Cleveland Center
05:47PM 41.1858 -83.3453 274° West 357 411 22,000  Level Cleveland Center
05:48PM 41.1917 -83.4750 273° West 356 410 22,000  Level Cleveland Center
05:49PM 41.1972 -83.6075 273° West 357 411 22,000  Level Cleveland Center
05:50PM 41.2036 -83.7644 273° West 356 410 22,000  Level Cleveland Center
05:51PM 41.2097 -83.8981 274° West 357 411 22,000  Level Cleveland Center
05:52PM 41.2150 -84.0286 273° West 357 411 22,000  Level Chicago Center
05:53PM 41.2217 -84.1594 274° West 357 411 22,000  Level Chicago Center
05:54PM 41.2258 -84.3167 272° West 356 410 22,000  Level Chicago Center
05:55PM 41.2292 -84.4483 272° West 356 410 22,000  Level Chicago Center
05:56PM 41.2328 -84.5806 272° West 357 411 22,000  Level Chicago Center
05:57PM 41.2369 -84.7111 272° West 357 411 22,000  Level Chicago Center
05:58PM 41.2414 -84.8433 273° West 357 411 22,000  Level Chicago Center
05:59PM 41.2458 -84.9756 273° West 357 411 22,000  Level Chicago Center
06:00PM 41.2497 -85.1353 272° West 357 411 22,000  Level Chicago Center
06:01PM 41.2539 -85.2683 272° West 357 411 22,000  Level Chicago Center
06:02PM 41.2592 -85.4022 273° West 358 412 22,000  Level Chicago Center
06:03PM 41.2619 -85.5353 272° West 358 412 22,000  Level Chicago Center
06:05PM 41.2642 -85.6692 271° West 358 412 22,000  Level Chicago Center
06:06PM 41.2672 -85.8036 272° West 359 413 22,000  Level Chicago Center
06:07PM 41.2906 -85.9358 283° West 368 423 22,000  Level Chicago Center
06:08PM 41.3264 -86.0947 287° West 370 426 22,000  Level Chicago Center
06:09PM 41.3564 -86.2286 287° West 374 430 22,000  Level Chicago Center
06:10PM 41.3867 -86.3633 287° West 379 436 22,000 -300 Level Chicago Center
06:11PM 41.4172 -86.4975 287° West 378 435 21,400 -1,320 Descending Chicago Center
06:12PM 41.4456 -86.6261 286° West 365 420 19,300 -2,280 Descending Chicago Center
06:13PM 41.4814 -86.7753 288° West 365 420 16,800 -2,460 Descending Chicago Center
06:14PM 41.5106 -86.9114 286° West 358 412 14,300 -2,160 Descending Chicago Center
06:15PM 41.5367 -87.0331 286° West 340 391 12,400 -1,140 Descending Chicago Center
06:16PM 41.5647 -87.1622 286° West 339 390 12,000 -300 Descending Chicago Center
06:17PM 41.6044 -87.2742 295° West 341 392 11,900 -840 Descending Chicago Center
06:18PM 41.6708 -87.3622 315° West 339 390 10,300 -960 Descending Chicago Center
06:19PM 41.7344 -87.4669 309° West 340 391 10,000 -180 Descending Chicago Center
06:20PM 41.7853 -87.5822 301° West 339 390 10,000  Level Chicago Center
06:21PM 41.8169 -87.6986 290° West 335 386 10,000 -300 Level Chicago Center
06:22PM 41.8414 -87.8058 287° West 272 313 9,500 -1,020 Descending Chicago Center
06:23PM 41.8636 -87.9011 287° West 271 312 8,000 -1,380 Descending Chicago Center
06:24PM 41.8833 -87.9667 292° West 276 318 7,200 -720 Descending Chicago TRACON
06:25PM 41.8833 -88.0667 270° West 265 305 6,800 -900 Descending Chicago TRACON
06:26PM 41.8833 -88.1667 270° West 263 303 5,500 -900 Descending Chicago TRACON
06:27PM 41.8833 -88.2667 270° West 341 392 5,000 -300 Descending Chicago TRACON
06:28PM 41.8833 -88.3667 270° West 251 289 5,000  Level Chicago TRACON
06:29PM 41.9167 -88.4333 304° West 243 280 5,000  Level Chicago TRACON
06:29PM 41.9400 -88.4306 North 229 264 5,000  Level Chicago Center
06:30PM 41.9633 -88.3522 68° East 230 265 5,000  Level Chicago Center
06:31PM 41.9642 -88.2644 89° East 219 252 5,000 -120 Level Chicago Center
06:32PM 41.9636 -88.1933 91° East 196 226 4,800 -720 Descending Chicago Center
06:34PM 41.9647 -88.1181 89° East 191 220 3,600 -1,080 Descending Chicago Center
06:35PM 41.9642 -88.0517 91° East 182 209 2,600 -900 Descending Chicago Center
06:36PM 41.9647 -87.9986 89° East 145 167 1,800 -780 Descending Chicago Center
06:37PM 41.9647 -87.9492 90° East 129 148 1,000 -480 Descending Chicago Center
06:38PM 41.9644 -87.9064 90° East 129 148 900 -120 Descending Chicago Center